Time;durP1;ratioP1;P1;durP2;ratioP2;P2;SDS_P1;SDS_P2;PMS_P1;PMS_P2;Temp;Humidity;BMP_temperature;BMP_pressure;BME280_temperature;BME280_humidity;BME280_pressure;Samples;Min_cycle;Max_cycle;Signal;HPM_P1;HPM_P2
2020/12/16 00:01:54;;;;;;;41.72;24.90;;;;;;;6.14;100.00;98262.72;5000235;28;45578;-79
2020/12/16 00:04:22;;;;;;;39.85;25.10;;;;;;;6.09;100.00;98272.81;4999592;28;46205;-79
2020/12/16 00:06:48;;;;;;;35.25;22.85;;;;;;;6.17;100.00;98272.22;5000038;28;45439;-79
2020/12/16 00:09:14;;;;;;;35.45;21.90;;;;;;;6.25;100.00;98270.63;5000122;28;45340;-79
2020/12/16 00:11:39;;;;;;;39.85;25.17;;;;;;;6.19;100.00;98271.13;5000262;28;45214;-79
2020/12/16 00:14:05;;;;;;;35.95;24.25;;;;;;;6.20;100.00;98274.59;4999947;28;46020;-79
2020/12/16 00:16:32;;;;;;;38.67;25.13;;;;;;;6.26;100.00;98272.28;5000104;28;45634;-79
2020/12/16 00:18:58;;;;;;;36.75;23.70;;;;;;;6.30;100.00;98266.75;4992653;28;45315;-79
2020/12/16 00:21:23;;;;;;;34.60;23.25;;;;;;;6.31;100.00;98268.44;4999913;28;45555;-79
2020/12/16 00:23:49;;;;;;;33.63;23.73;;;;;;;6.33;100.00;98255.94;4999986;28;45468;-79
2020/12/16 00:26:15;;;;;;;35.38;23.05;;;;;;;6.36;100.00;98256.50;4999751;28;45365;-79
2020/12/16 00:28:41;;;;;;;36.00;24.23;;;;;;;6.38;100.00;98259.03;5000018;28;45393;-79
2020/12/16 00:31:07;;;;;;;39.75;23.63;;;;;;;6.37;100.00;98260.81;4999133;28;45499;-79
2020/12/16 00:33:34;;;;;;;31.77;22.15;;;;;;;6.41;100.00;98262.22;4999480;28;45502;-79
2020/12/16 00:36:00;;;;;;;32.15;21.92;;;;;;;6.43;100.00;98262.09;5014850;28;45328;-79
2020/12/16 00:38:25;;;;;;;32.33;21.58;;;;;;;6.39;100.00;98264.16;4999877;28;45412;-79
2020/12/16 00:40:50;;;;;;;34.10;22.88;;;;;;;6.38;100.00;98265.13;5014912;28;45592;-79
2020/12/16 00:43:16;;;;;;;27.08;19.42;;;;;;;6.39;100.00;98271.25;5014459;28;47149;-79
2020/12/16 00:45:41;;;;;;;27.50;18.88;;;;;;;6.41;100.00;98278.06;4999553;28;45315;-79
2020/12/16 00:48:06;;;;;;;26.13;18.42;;;;;;;6.44;100.00;98282.28;4999461;28;45320;-79
2020/12/16 00:50:32;;;;;;;23.40;16.88;;;;;;;6.43;100.00;98273.50;4999525;28;45551;-79
2020/12/16 00:52:59;;;;;;;26.48;18.55;;;;;;;6.42;100.00;98278.94;4997972;28;47687;-79
2020/12/16 00:55:24;;;;;;;24.85;17.40;;;;;;;6.42;100.00;98285.03;4999368;28;45254;-79
2020/12/16 00:57:49;;;;;;;28.00;19.70;;;;;;;6.41;100.00;98286.00;5014756;28;45516;-79
2020/12/16 01:00:17;;;;;;;29.08;19.77;;;;;;;6.41;100.00;98286.00;4999478;28;45674;-79
2020/12/16 01:02:47;;;;;;;33.22;19.85;;;;;;;6.39;100.00;98277.38;5013860;28;47155;-79
2020/12/16 01:05:19;;;;;;;32.05;21.25;;;;;;;6.41;100.00;98277.25;4998050;28;45385;-79
2020/12/16 01:07:45;;;;;;;32.03;18.65;;;;;;;6.40;100.00;98280.84;4998128;28;45275;-79
2020/12/16 01:10:13;;;;;;;26.90;17.90;;;;;;;6.43;100.00;98284.06;4999278;28;45351;-79
2020/12/16 01:12:39;;;;;;;27.70;18.80;;;;;;;6.42;100.00;98278.94;4999198;28;46204;-79
2020/12/16 01:15:11;;;;;;;24.45;16.98;;;;;;;6.39;100.00;98277.38;5014349;28;45276;-79
2020/12/16 01:17:41;;;;;;;23.70;17.08;;;;;;;6.38;100.00;98283.63;4998825;28;45371;-79
2020/12/16 01:20:08;;;;;;;24.20;16.95;;;;;;;6.37;100.00;98275.84;4999017;28;45420;-79
2020/12/16 01:22:38;;;;;;;26.40;17.23;;;;;;;6.36;100.00;98290.84;4999032;28;45284;-79
2020/12/16 01:25:03;;;;;;;23.13;16.43;;;;;;;6.35;100.00;98286.50;4998935;28;45544;-79
2020/12/16 01:27:28;;;;;;;23.70;16.17;;;;;;;6.23;100.00;98277.81;5014442;28;45397;-79
2020/12/16 01:29:54;;;;;;;19.40;14.93;;;;;;;6.28;100.00;98274.78;4997520;28;45649;-79
2020/12/16 01:32:19;;;;;;;18.88;13.35;;;;;;;6.31;100.00;98271.88;4998366;28;45253;-79
2020/12/16 01:34:45;;;;;;;18.75;12.98;;;;;;;6.32;100.00;98276.19;4998815;28;45305;-79
2020/12/16 01:37:10;;;;;;;18.15;13.00;;;;;;;6.31;100.00;98266.59;4998935;28;45431;-79
2020/12/16 01:39:35;;;;;;;16.85;12.10;;;;;;;6.32;100.00;98264.81;4998856;28;45515;-79
2020/12/16 01:42:01;;;;;;;19.75;12.05;;;;;;;6.18;100.00;98271.25;4998493;28;45458;-79
2020/12/16 01:44:29;;;;;;;14.13;9.68;;;;;;;6.11;100.00;98273.53;4998311;28;45473;-79
2020/12/16 01:46:56;;;;;;;13.23;9.10;;;;;;;6.02;100.00;98277.78;4998789;28;45359;-79
2020/12/16 01:49:23;;;;;;;14.18;10.27;;;;;;;6.13;100.00;98269.81;5013427;28;45606;-79
2020/12/16 01:52:03;;;;;;;16.60;10.30;;;;;;;6.10;100.00;98280.63;4997120;28;47190;-79
2020/12/16 01:54:29;;;;;;;18.27;10.93;;;;;;;5.96;100.00;98280.91;4998353;28;45226;-79
2020/12/16 01:56:56;;;;;;;73.20;16.90;;;;;;;6.09;100.00;98271.03;4998584;28;45255;-79
2020/12/16 01:59:22;;;;;;;20.23;11.95;;;;;;;6.15;100.00;98269.69;4998424;28;45294;-79
2020/12/16 02:01:53;;;;;;;110.22;20.20;;;;;;;6.12;100.00;98260.22;5013529;28;47300;-79
2020/12/16 02:04:24;;;;;;;992.13;63.63;;;;;;;5.91;100.00;98254.06;5013035;28;45517;-79
2020/12/16 02:06:57;;;;;;;633.33;53.85;;;;;;;6.01;100.00;98254.16;4998511;28;45523;-79
2020/12/16 02:09:22;;;;;;;156.38;24.65;;;;;;;5.99;100.00;98260.34;4986103;28;45324;-79
2020/12/16 02:11:49;;;;;;;294.38;33.10;;;;;;;5.98;100.00;98260.50;4998202;28;45312;-79
2020/12/16 02:14:14;;;;;;;13.82;9.35;;;;;;;5.75;100.00;98259.75;5013483;28;45402;-79
2020/12/16 02:16:40;;;;;;;14.50;8.35;;;;;;;5.77;100.00;98266.59;4998215;28;45432;-79
2020/12/16 02:19:08;;;;;;;19.20;11.65;;;;;;;5.68;100.00;98269.94;5013076;28;45333;-79
2020/12/16 02:21:34;;;;;;;17.33;12.45;;;;;;;5.74;100.00;98266.81;4997974;28;45452;-79
2020/12/16 02:24:12;;;;;;;18.60;12.07;;;;;;;5.83;100.00;98270.50;4998162;28;45228;-79
2020/12/16 02:26:39;;;;;;;13.68;8.80;;;;;;;5.91;100.00;98261.97;4998256;28;45273;-79
2020/12/16 02:29:07;;;;;;;10.90;7.78;;;;;;;5.91;100.00;98256.69;4998217;28;45269;-79
2020/12/16 02:31:35;;;;;;;11.15;8.50;;;;;;;5.92;100.00;98255.72;4997715;28;45443;-79
2020/12/16 02:34:01;;;;;;;12.30;8.95;;;;;;;5.75;100.00;98263.22;4997812;28;45229;-79
2020/12/16 02:36:26;;;;;;;8.95;6.57;;;;;;;5.57;100.00;98259.41;4997927;28;45292;-79
2020/12/16 02:38:53;;;;;;;9.88;5.95;;;;;;;5.80;100.00;98260.19;5013381;28;45548;-79
2020/12/16 02:41:19;;;;;;;10.00;5.38;;;;;;;5.71;100.00;98261.78;4996343;28;48340;-79
2020/12/16 02:43:44;;;;;;;7.25;5.35;;;;;;;5.83;100.00;98268.72;4997663;28;45426;-79
2020/12/16 02:46:10;;;;;;;10.27;5.97;;;;;;;5.87;100.00;98257.91;5012856;28;45262;-79
2020/12/16 02:48:35;;;;;;;10.60;6.38;;;;;;;5.86;100.00;98269.44;4996368;28;45388;-79
2020/12/16 02:51:01;;;;;;;9.50;6.57;;;;;;;5.84;100.00;98258.97;4997442;28;45383;-79
2020/12/16 02:53:27;;;;;;;10.60;7.15;;;;;;;5.82;100.00;98259.13;4997329;28;45158;-79
2020/12/16 02:55:52;;;;;;;11.80;6.82;;;;;;;5.84;100.00;98261.63;5012386;28;45458;-79
2020/12/16 02:58:18;;;;;;;13.77;8.82;;;;;;;5.83;100.00;98263.44;4997839;28;45306;-79
2020/12/16 03:00:43;;;;;;;18.65;11.80;;;;;;;5.79;100.00;98256.75;4997514;28;45935;-79
2020/12/16 03:03:08;;;;;;;25.35;14.60;;;;;;;5.69;100.00;98243.44;4997205;28;45396;-79
2020/12/16 03:05:34;;;;;;;21.83;13.93;;;;;;;5.70;100.00;98233.72;4997561;28;45418;-79
2020/12/16 03:07:59;;;;;;;17.48;11.13;;;;;;;5.60;100.00;98235.44;4997643;28;45534;-79
2020/12/16 03:10:25;;;;;;;7.80;5.85;;;;;;;5.57;100.00;98233.03;4997322;28;45931;-79
2020/12/16 03:12:50;;;;;;;6.75;4.95;;;;;;;5.51;100.00;98229.94;5012845;28;45392;-79
2020/12/16 03:15:15;;;;;;;6.90;4.20;;;;;;;5.46;100.00;98234.75;4997516;28;45317;-79
2020/12/16 03:17:41;;;;;;;5.03;3.50;;;;;;;5.50;100.00;98233.53;4997126;28;45376;-79
2020/12/16 03:20:06;;;;;;;6.70;3.90;;;;;;;5.51;100.00;98234.41;4997104;28;46164;-79
2020/12/16 03:22:32;;;;;;;6.47;3.03;;;;;;;5.50;100.00;98224.81;4997466;28;45300;-79
2020/12/16 03:24:57;;;;;;;8.10;2.88;;;;;;;5.43;100.00;98224.44;5012624;28;45355;-79
2020/12/16 03:27:23;;;;;;;30.35;8.82;;;;;;;5.24;100.00;98215.38;4997488;28;45462;-79
2020/12/16 03:29:48;;;;;;;7.45;3.47;;;;;;;5.31;100.00;98217.53;4997140;28;46243;-79
2020/12/16 03:32:14;;;;;;;6.18;2.72;;;;;;;5.33;100.00;98218.25;4996984;28;45305;-79
2020/12/16 03:34:39;;;;;;;4.40;2.58;;;;;;;5.36;100.00;98229.41;4997363;28;45308;-79
2020/12/16 03:37:04;;;;;;;8.80;5.28;;;;;;;5.33;100.00;98226.16;4997306;28;45536;-79
2020/12/16 03:39:30;;;;;;;62.25;13.77;;;;;;;5.36;100.00;98229.41;5012199;28;47675;-79
2020/12/16 03:41:56;;;;;;;16.85;10.75;;;;;;;5.44;100.00;98241.94;4995895;28;45520;-79
2020/12/16 03:44:22;;;;;;;22.35;12.82;;;;;;;5.47;100.00;98241.69;4996906;28;45274;-79
2020/12/16 03:46:54;;;;;;;16.42;9.70;;;;;;;5.54;100.00;98242.06;4997182;28;45233;-79
2020/12/16 03:49:19;;;;;;;30.00;16.17;;;;;;;5.60;100.00;98240.69;4995538;28;47465;-79
2020/12/16 03:51:50;;;;;;;34.80;15.52;;;;;;;5.61;100.00;98247.66;4997020;28;45352;-79
2020/12/16 03:54:15;;;;;;;;;;;;;;;5.58;100.00;98237.34;4997453;28;45435;-79
2020/12/16 03:56:40;;;;;;;32.80;14.20;;;;;;;5.53;100.00;98235.94;4997142;28;45281;-79
2020/12/16 03:59:06;;;;;;;22.35;13.70;;;;;;;5.53;100.00;98228.00;4996845;28;45452;-79
2020/12/16 04:01:31;;;;;;;35.38;14.50;;;;;;;5.49;100.00;98233.69;5012109;28;45880;-79
2020/12/16 04:03:56;;;;;;;16.63;10.68;;;;;;;5.59;100.00;98239.03;4996448;28;45424;-79
2020/12/16 04:06:22;;;;;;;17.45;11.55;;;;;;;5.44;100.00;98238.50;5015289;28;45273;-79
2020/12/16 04:08:47;;;;;;;19.95;12.05;;;;;;;5.49;100.00;98242.41;4999970;28;45306;-79
2020/12/16 04:11:18;;;;;;;16.20;10.35;;;;;;;5.56;100.00;98240.13;5015502;28;45344;-79
2020/12/16 04:13:43;;;;;;;;;;;;;;;5.60;100.00;98232.78;5015854;28;45319;-79
2020/12/16 04:16:15;;;;;;;14.50;8.80;;;;;;;5.61;100.00;98231.81;5000160;28;45559;-79
2020/12/16 04:18:41;;;;;;;13.15;8.13;;;;;;;5.61;100.00;98231.81;4999497;28;46306;-79
2020/12/16 04:21:07;;;;;;;9.48;5.10;;;;;;;5.63;100.00;98228.13;4999862;28;45402;-79
2020/12/16 04:23:33;;;;;;;6.82;3.97;;;;;;;5.67;100.00;98233.97;5015187;28;45297;-79
2020/12/16 04:25:59;;;;;;;12.48;7.57;;;;;;;5.58;100.00;98237.34;5000048;28;45273;-79
2020/12/16 04:28:25;;;;;;;425.15;39.10;;;;;;;5.49;100.00;98231.03;5014949;28;47730;-79
2020/12/16 04:30:50;;;;;;;218.13;26.70;;;;;;;5.53;100.00;98233.28;5015171;28;45817;-79
2020/12/16 04:33:15;;;;;;;360.35;31.40;;;;;;;5.46;100.00;98226.00;4999321;28;45410;-79
2020/12/16 04:35:41;;;;;;;157.77;25.75;;;;;;;5.42;100.00;98222.78;5015114;28;45529;-79
2020/12/16 04:38:06;;;;;;;285.83;31.40;;;;;;;5.47;100.00;98233.78;4999516;28;45465;-79
2020/12/16 04:40:32;;;;;;;182.93;26.05;;;;;;;5.45;100.00;98230.44;5014881;28;45613;-79
2020/12/16 04:43:01;;;;;;;94.75;17.65;;;;;;;5.39;100.00;98229.16;4999672;28;45428;-79
2020/12/16 04:45:27;;;;;;;12.23;7.38;;;;;;;5.33;100.00;98228.78;4999376;28;45269;-79
2020/12/16 04:47:53;;;;;;;8.77;5.20;;;;;;;5.42;100.00;98228.03;4997696;28;47649;-79
2020/12/16 04:50:18;;;;;;;7.32;4.57;;;;;;;5.44;100.00;98227.94;4999501;28;45249;-79
2020/12/16 04:52:48;;;;;;;16.63;4.13;;;;;;;5.42;100.00;98233.31;4999431;28;45297;-78
2020/12/16 04:55:16;;;;;;;39.13;8.00;;;;;;;5.46;100.00;98232.09;4999427;28;45559;-79
2020/12/16 04:57:46;;;;;;;76.72;13.77;;;;;;;5.43;100.00;98235.00;4999226;28;45626;-79
2020/12/16 05:00:12;;;;;;;17.50;8.63;;;;;;;5.42;100.00;98237.78;4999552;28;45372;-79
2020/12/16 05:02:37;;;;;;;9.40;5.35;;;;;;;5.34;100.00;98238.38;4998822;28;45429;-79
2020/12/16 05:05:03;;;;;;;8.30;4.70;;;;;;;5.26;100.00;98246.88;4998288;28;45554;-78
2020/12/16 05:07:30;;;;;;;5.30;3.10;;;;;;;5.33;100.00;98263.06;4998942;28;46002;-79
2020/12/16 05:09:56;;;;;;;4.18;2.33;;;;;;;5.36;100.00;98249.63;4999411;28;45329;-79
2020/12/16 05:12:21;;;;;;;5.22;2.42;;;;;;;5.45;100.00;98259.44;4999111;28;45456;-79
2020/12/16 05:14:47;;;;;;;3.70;2.20;;;;;;;5.49;100.00;98263.50;4999416;28;45221;-79
2020/12/16 05:17:12;;;;;;;4.30;2.28;;;;;;;5.52;100.00;98252.72;4998319;28;46260;-79
2020/12/16 05:19:40;;;;;;;5.88;2.38;;;;;;;5.57;100.00;98243.59;5014137;28;45517;-79
2020/12/16 05:22:23;;;;;;;7.05;2.15;;;;;;;5.61;100.00;98240.59;5014558;28;45573;-79
2020/12/16 05:24:54;;;;;;;26.55;8.68;;;;;;;5.60;100.00;98245.97;5014366;28;45490;-78
2020/12/16 05:27:28;;;;;;;12.95;7.93;;;;;;;5.46;100.00;98242.66;4999027;28;45480;-79
2020/12/16 05:30:13;;;;;;;13.38;7.72;;;;;;;5.42;100.00;98230.69;4999016;28;45325;-79
2020/12/16 05:32:39;;;;;;;9.27;5.40;;;;;;;5.44;100.00;98226.13;4998142;28;45365;-79
2020/12/16 05:35:27;;;;;;;24.77;7.88;;;;;;;5.07;100.00;98231.72;4998933;28;45628;-78
2020/12/16 05:38:04;;;;;;;299.58;23.92;;;;;;;4.98;100.00;98233.28;5013883;28;46974;-78
2020/12/16 05:40:31;;;;;;;280.13;24.08;;;;;;;4.84;100.00;98228.25;4998836;28;45359;-79
2020/12/16 05:42:57;;;;;;;186.60;18.45;;;;;;;4.67;100.00;98228.59;4998662;28;45340;-78
2020/12/16 05:45:28;;;;;;;7.97;5.25;;;;;;;4.75;100.00;98227.16;5013821;28;45415;-78
2020/12/16 05:48:18;;;;;;;3.72;1.80;;;;;;;4.82;100.00;98233.63;4998173;28;45613;-79
2020/12/16 05:50:53;;;;;;;2.60;1.50;;;;;;;4.86;100.00;98237.72;4996698;28;45508;-79
2020/12/16 05:53:27;;;;;;;2.40;1.42;;;;;;;4.91;100.00;98246.09;4998856;28;45340;-79
2020/12/16 05:56:00;;;;;;;2.33;1.38;;;;;;;4.93;100.00;98245.97;5013545;28;45528;-78
2020/12/16 05:58:31;;;;;;;4.20;2.08;;;;;;;4.88;100.00;98245.50;5013776;28;47680;-79
2020/12/16 06:00:59;;;;;;;3.97;1.40;;;;;;;4.82;100.00;98246.78;5013516;28;45391;-78
2020/12/16 06:03:30;;;;;;;3.22;1.33;;;;;;;4.81;100.00;98238.06;4996175;28;45329;-79
2020/12/16 06:06:03;;;;;;;3.70;1.23;;;;;;;4.76;100.00;98252.53;4992044;28;45744;-79
2020/12/16 06:08:33;;;;;;;1.75;1.23;;;;;;;4.78;100.00;98251.47;4992844;28;46210;-79
2020/12/16 06:10:58;;;;;;;3.72;2.50;;;;;;;4.85;100.00;98253.63;4993562;28;45494;-79
2020/12/16 06:13:24;;;;;;;4.18;2.45;;;;;;;4.83;100.00;98259.00;4997626;28;45392;-79
2020/12/16 06:16:00;;;;;;;4.18;2.60;;;;;;;4.75;100.00;98267.53;4997662;28;45384;-79
2020/12/16 06:18:29;;;;;;;5.00;2.40;;;;;;;4.77;100.00;98270.03;4987072;28;45478;-79
2020/12/16 06:20:56;;;;;;;4.57;2.60;;;;;;;4.62;100.00;98272.06;4997323;28;45484;-78
2020/12/16 06:23:29;;;;;;;3.33;1.83;;;;;;;4.56;100.00;98276.00;4997526;28;45332;-78
2020/12/16 06:25:56;;;;;;;4.13;1.83;;;;;;;4.62;100.00;98279.97;4997493;28;45744;-78
2020/12/16 06:28:22;;;;;;;3.33;2.17;;;;;;;4.63;100.00;98279.84;4996702;28;45547;-79
2020/12/16 06:30:54;;;;;;;5.68;3.92;;;;;;;4.47;100.00;98279.34;4997337;28;45360;-79
2020/12/16 06:33:42;;;;;;;3.60;2.20;;;;;;;4.54;100.00;98270.00;4997374;28;45452;-79
2020/12/16 06:36:10;;;;;;;2.92;1.20;;;;;;;4.58;100.00;98278.53;4997109;28;45800;-79
2020/12/16 06:38:39;;;;;;;2.55;1.08;;;;;;;4.58;100.00;98279.34;4996845;28;46567;-79
2020/12/16 06:41:10;;;;;;;4.15;1.05;;;;;;;4.62;100.00;98279.97;5012398;28;45458;-79
2020/12/16 06:43:37;;;;;;;4.85;1.23;;;;;;;4.64;100.00;98283.31;5012270;28;45349;-79
2020/12/16 06:46:24;;;;;;;2.70;1.15;;;;;;;4.59;100.00;98281.03;5012418;28;45435;-79
2020/12/16 06:48:49;;;;;;;2.40;0.80;;;;;;;4.68;100.00;98292.66;4995175;28;45589;-78
2020/12/16 06:51:17;;;;;;;2.10;1.15;;;;;;;4.74;100.00;98288.72;4996988;28;45742;-79
2020/12/16 06:53:46;;;;;;;1.25;0.90;;;;;;;4.74;100.00;98283.44;4995944;28;45274;-78
2020/12/16 06:56:17;;;;;;;2.97;1.70;;;;;;;4.75;100.00;98287.75;4996862;28;45487;-78
2020/12/16 06:58:42;;;;;;;3.47;1.63;;;;;;;4.75;100.00;98282.47;5012287;28;47798;-78
2020/12/16 07:01:16;;;;;;;2.33;1.30;;;;;;;4.79;100.00;98279.50;4996877;28;45649;-79
2020/12/16 07:03:42;;;;;;;13.48;8.35;;;;;;;4.63;100.00;98285.09;5022755;28;45291;-79
2020/12/16 07:06:12;;;;;;;5.55;3.40;;;;;;;4.72;100.00;98273.03;4996829;28;45654;-78
2020/12/16 07:08:38;;;;;;;6.05;3.63;;;;;;;4.34;100.00;98274.16;4996679;28;46073;-79
2020/12/16 07:11:04;;;;;;;4.50;2.25;;;;;;;4.57;100.00;98287.38;5011965;28;45398;-78
2020/12/16 07:13:34;;;;;;;11.98;6.72;;;;;;;4.35;100.00;98295.13;4996911;28;45424;-78
2020/12/16 07:16:10;;;;;;;14.77;10.50;;;;;;;4.37;100.00;98287.94;4996665;28;45349;-79
2020/12/16 07:18:38;;;;;;;7.70;5.63;;;;;;;4.44;100.00;98288.31;4989838;28;46866;-78
2020/12/16 07:21:19;;;;;;;5.07;3.95;;;;;;;4.51;100.00;98284.28;4996775;28;45402;-78
2020/12/16 07:23:45;;;;;;;2.85;1.55;;;;;;;4.22;100.00;98286.47;4992424;28;45370;-79
2020/12/16 07:26:19;;;;;;;5.68;2.85;;;;;;;4.40;100.00;98288.66;4994363;28;45666;-78
2020/12/16 07:28:45;;;;;;;6.13;2.58;;;;;;;4.36;100.00;98277.50;5008739;28;48261;-79
2020/12/16 07:31:11;;;;;;;3.35;2.00;;;;;;;4.42;100.00;98281.47;5006349;28;45625;-78
2020/12/16 07:33:36;;;;;;;2.33;1.20;;;;;;;4.50;100.00;98276.47;4995277;28;45654;-78
2020/12/16 07:36:03;;;;;;;1.77;1.05;;;;;;;4.53;100.00;98281.50;4996131;28;45544;-81
2020/12/16 07:38:29;;;;;;;5.30;3.95;;;;;;;4.47;100.00;98285.47;4995744;28;45502;-86
2020/12/16 07:40:55;;;;;;;5.85;4.63;;;;;;;4.38;100.00;98294.03;5018266;28;45610;-86
2020/12/16 07:43:22;;;;;;;76.53;45.28;;;;;;;4.37;100.00;98298.47;4999415;28;45493;-79
2020/12/16 07:46:04;;;;;;;11.18;7.85;;;;;;;4.46;100.00;98293.47;5016835;28;45452;-82
2020/12/16 07:48:30;;;;;;;11.00;6.88;;;;;;;4.51;100.00;98293.94;5010692;28;47612;-82
2020/12/16 07:51:04;;;;;;;8.93;5.65;;;;;;;4.54;100.00;98288.44;4999187;28;45477;-84
2020/12/16 07:53:31;;;;;;;5.60;3.70;;;;;;;4.58;100.00;98292.53;5014621;28;45455;-85
2020/12/16 07:56:01;;;;;;;3.55;1.90;;;;;;;4.57;100.00;98301.38;4999452;28;45340;-82
2020/12/16 07:58:29;;;;;;;4.15;3.10;;;;;;;4.46;100.00;98293.47;4998172;28;47266;-84
2020/12/16 08:01:19;;;;;;;10.30;6.35;;;;;;;4.50;100.00;98292.28;5018752;28;45312;-79
2020/12/16 08:03:45;;;;;;;3.97;1.75;;;;;;;4.51;100.00;98293.94;4995464;28;45305;-81
2020/12/16 08:06:11;;;;;;;3.22;1.40;;;;;;;4.51;100.00;98280.78;4999138;28;45234;-80
2020/12/16 08:08:42;;;;;;;4.50;1.77;;;;;;;4.38;100.00;98279.06;5014379;28;47628;-81
2020/12/16 08:11:16;;;;;;;3.25;1.70;;;;;;;4.50;100.00;98284.38;5014699;28;45351;-81
2020/12/16 08:13:42;;;;;;;3.38;1.23;;;;;;;4.51;100.00;98289.53;4997827;28;45618;-81
2020/12/16 08:16:08;;;;;;;4.15;1.20;;;;;;;4.56;100.00;98291.81;4999361;28;45631;-79
2020/12/16 08:18:38;;;;;;;2.92;1.02;;;;;;;4.53;100.00;98292.88;4994373;28;46257;-82
2020/12/16 08:21:13;;;;;;;5.20;2.70;;;;;;;4.56;100.00;98293.63;4998321;28;45535;-81
2020/12/16 08:23:38;;;;;;;13.73;9.75;;;;;;;4.54;100.00;98293.72;4997510;28;45432;-80
2020/12/16 08:26:04;;;;;;;18.05;12.52;;;;;;;4.44;100.00;98282.19;5013158;28;45424;-79
2020/12/16 08:28:29;;;;;;;16.17;10.88;;;;;;;4.48;100.00;98292.41;4998150;28;45495;-78
2020/12/16 08:30:57;;;;;;;10.82;8.05;;;;;;;4.09;100.00;98297.91;5012992;28;45536;-79
2020/12/16 08:33:25;;;;;;;16.05;11.02;;;;;;;4.27;100.00;98286.94;4997994;28;45780;-78
2020/12/16 08:35:53;;;;;;;14.63;10.15;;;;;;;4.34;100.00;98295.22;5013206;28;45440;-79
2020/12/16 08:38:24;;;;;;;11.93;8.38;;;;;;;4.22;100.00;98292.53;4998276;28;45553;-79
2020/12/16 08:40:49;;;;;;;6.60;4.60;;;;;;;4.26;100.00;98294.94;4993107;28;45363;-79
2020/12/16 08:43:30;;;;;;;3.15;2.03;;;;;;;4.37;100.00;98294.97;4995944;28;45494;-79
2020/12/16 08:46:19;;;;;;;19.98;11.45;;;;;;;4.33;100.00;98301.44;5014870;28;45520;-79
2020/12/16 08:49:02;;;;;;;30.63;17.42;;;;;;;4.36;100.00;98299.41;4994486;28;46879;-80
2020/12/16 08:51:32;;;;;;;27.27;18.65;;;;;;;4.33;100.00;98298.81;4995892;28;45642;-79
2020/12/16 08:53:59;;;;;;;9.63;5.97;;;;;;;4.35;100.00;98300.38;4997063;28;45555;-79
2020/12/16 08:56:29;;;;;;;3.20;2.30;;;;;;;4.33;100.00;98291.75;5016083;28;45556;-80
2020/12/16 08:58:59;;;;;;;4.53;2.70;;;;;;;4.40;100.00;98296.56;4984252;28;48060;-80
2020/12/16 09:01:25;;;;;;;4.97;2.30;;;;;;;4.46;100.00;98294.31;4994672;28;45523;-80
2020/12/16 09:03:52;;;;;;;5.63;2.35;;;;;;;4.45;100.00;98308.44;4997716;28;45614;-79
2020/12/16 09:06:17;;;;;;;3.72;2.22;;;;;;;4.57;100.00;98309.28;4997787;28;45546;-79
2020/12/16 09:08:43;;;;;;;2.47;1.55;;;;;;;4.63;100.00;98308.00;4995808;28;47240;-78
2020/12/16 09:11:08;;;;;;;7.05;3.88;;;;;;;4.55;100.00;98311.19;4997328;28;45359;-79
2020/12/16 09:13:34;;;;;;;12.82;7.78;;;;;;;4.62;100.00;98299.25;4997725;28;45593;-83
2020/12/16 09:15:59;;;;;;;6.15;2.75;;;;;;;4.77;100.00;98301.66;5011502;28;45552;-81
2020/12/16 09:18:29;;;;;;;4.28;2.58;;;;;;;4.85;100.00;98309.81;4997114;28;46402;-80
2020/12/16 09:20:56;;;;;;;3.33;2.00;;;;;;;4.90;100.00;98302.41;4997401;28;45393;-78
2020/12/16 09:23:28;;;;;;;5.85;2.17;;;;;;;4.96;100.00;98301.06;4997623;28;45290;-80
2020/12/16 09:25:57;;;;;;;3.85;2.60;;;;;;;5.01;100.00;98300.72;5005642;28;45469;-79
2020/12/16 09:28:37;;;;;;;4.90;1.92;;;;;;;5.13;100.00;98304.19;5012537;28;47773;-79
2020/12/16 09:31:20;;;;;;;7.85;4.10;;;;;;;5.17;100.00;98309.13;4997201;28;45538;-77
2020/12/16 09:33:59;;;;;;;11.45;6.32;;;;;;;5.24;100.00;98304.19;4996642;28;45541;-80
2020/12/16 09:36:28;;;;;;;13.15;8.43;;;;;;;5.26;100.00;98308.41;4999464;28;45574;-77
2020/12/16 09:38:59;;;;;;;12.82;8.10;;;;;;;5.31;100.00;98312.47;4999080;28;45423;-79
2020/12/16 09:41:24;;;;;;;;;;;;;;;5.38;100.00;98316.28;5013794;28;45615;-80
2020/12/16 09:43:50;;;;;;;16.42;10.30;;;;;;;5.40;100.00;98317.00;4997150;28;45355;-79
2020/12/16 09:46:18;;;;;;;14.32;8.65;;;;;;;5.50;100.00;98307.41;4997140;28;45564;-79
2020/12/16 09:48:46;;;;;;;10.60;6.70;;;;;;;5.62;100.00;98310.88;4995815;28;46215;-79
2020/12/16 09:51:16;;;;;;;11.23;6.35;;;;;;;5.70;100.00;98310.22;4995868;28;45614;-79
2020/12/16 09:53:42;;;;;;;9.10;5.78;;;;;;;5.79;100.00;98309.53;5016897;28;45640;-80
2020/12/16 09:56:08;;;;;;;10.02;5.63;;;;;;;5.86;100.00;98311.66;4994863;28;45651;-80
2020/12/16 09:58:40;;;;;;;8.27;5.30;;;;;;;5.92;100.00;98313.81;4997057;28;46155;-80
2020/12/16 10:01:06;;;;;;;7.90;4.47;;;;;;;5.95;100.00;98306.44;5028273;28;45508;-79
2020/12/16 10:03:31;;;;;;;7.32;4.03;;;;;;;6.01;100.00;98306.94;4995034;28;45328;-79
2020/12/16 10:05:56;;;;;;;6.50;3.90;;;;;;;5.99;100.00;98304.41;5011864;28;45641;-83
2020/12/16 10:08:22;;;;;;;7.65;3.67;;;;;;;5.99;100.00;98310.50;4992239;28;45703;-79
2020/12/16 10:10:47;;;;;;;9.02;6.03;;;;;;;6.04;100.00;98314.63;4995228;28;45423;-79
2020/12/16 10:13:14;;;;;;;8.63;5.63;;;;;;;6.05;100.00;98316.28;4996710;28;45585;-79
2020/12/16 10:15:40;;;;;;;8.73;5.53;;;;;;;6.03;100.00;98315.56;4996471;28;45316;-79
2020/12/16 10:18:05;;;;;;;9.20;6.38;;;;;;;6.03;100.00;98321.72;4994654;28;45748;-80
2020/12/16 10:20:31;;;;;;;10.63;6.93;;;;;;;6.06;100.00;98317.97;4996215;28;45523;-79
2020/12/16 10:22:56;;;;;;;8.85;6.05;;;;;;;6.06;100.00;98321.47;4996048;28;45602;-80
2020/12/16 10:25:22;;;;;;;10.57;6.97;;;;;;;6.08;100.00;98322.16;4996349;28;45288;-78
2020/12/16 10:27:48;;;;;;;14.77;9.00;;;;;;;6.13;100.00;98320.00;4994097;28;47533;-79
2020/12/16 10:30:14;;;;;;;13.90;8.77;;;;;;;6.18;100.00;98321.41;4994857;28;45612;-79
2020/12/16 10:32:39;;;;;;;12.55;8.77;;;;;;;6.28;100.00;98312.63;4994448;28;45455;-78
2020/12/16 10:35:05;;;;;;;9.80;6.35;;;;;;;6.49;100.00;98316.22;4995874;28;45581;-78
2020/12/16 10:37:32;;;;;;;9.38;6.60;;;;;;;6.69;100.00;98310.13;4996060;28;45651;-80
2020/12/16 10:39:58;;;;;;;7.50;5.57;;;;;;;7.06;98.02;98297.34;4995802;28;45518;-78
2020/12/16 10:42:24;;;;;;;9.25;5.50;;;;;;;7.54;97.41;98295.84;5009859;28;45428;-77
2020/12/16 10:44:49;;;;;;;8.05;5.30;;;;;;;8.06;95.11;98289.53;4995433;28;45547;-77
2020/12/16 10:47:15;;;;;;;6.38;4.20;;;;;;;8.36;92.77;98290.34;5001420;28;48255;-77
2020/12/16 10:49:41;;;;;;;6.00;3.17;;;;;;;8.38;94.67;98297.16;4997205;28;45220;-77
2020/12/16 10:52:10;;;;;;;5.97;3.03;;;;;;;8.83;90.89;98298.38;4997110;28;45524;-78
2020/12/16 10:54:35;;;;;;;11.73;7.03;;;;;;;8.39;90.20;98298.84;4997080;28;45396;-77
2020/12/16 10:57:01;;;;;;;13.15;7.50;;;;;;;8.23;92.46;98287.97;4995353;28;47019;-77
2020/12/16 10:59:29;;;;;;;11.55;7.43;;;;;;;7.90;93.53;98282.94;4996234;28;45330;-79
2020/12/16 11:01:57;;;;;;;12.07;7.32;;;;;;;7.71;94.65;98283.78;4996649;28;45261;-78
2020/12/16 11:04:23;;;;;;;12.13;7.47;;;;;;;7.94;94.41;98280.88;5011220;28;45455;-78
2020/12/16 11:06:50;;;;;;;12.13;7.05;;;;;;;7.92;94.22;98281.00;4993353;28;46135;-79
2020/12/16 11:09:17;;;;;;;13.18;6.75;;;;;;;8.25;94.14;98286.03;4991368;28;45515;-78
2020/12/16 11:11:44;;;;;;;9.23;6.05;;;;;;;8.28;93.89;98281.28;4994841;28;45559;-78
2020/12/16 11:14:10;;;;;;;5.53;3.30;;;;;;;8.27;94.48;98287.56;4997211;28;45324;-78
2020/12/16 11:16:35;;;;;;;10.45;4.90;;;;;;;8.41;93.84;98288.09;4998894;28;46148;-78
2020/12/16 11:19:01;;;;;;;7.28;4.93;;;;;;;8.69;93.40;98280.28;4999667;28;45437;-78
2020/12/16 11:21:27;;;;;;;9.70;5.20;;;;;;;8.74;92.30;98288.63;4999648;28;45435;-79
2020/12/16 11:23:53;;;;;;;13.23;6.45;;;;;;;8.62;91.01;98285.31;4998143;28;45495;-79
2020/12/16 11:26:19;;;;;;;12.80;7.35;;;;;;;8.82;91.76;98282.63;5014252;28;48200;-83
2020/12/16 11:28:44;;;;;;;12.60;7.88;;;;;;;9.10;91.40;98280.00;4998980;28;45313;-79
2020/12/16 11:31:10;;;;;;;10.68;5.90;;;;;;;8.94;89.95;98284.13;4998896;28;45434;-79